17:56
Airports
History
Links
Donate
Help keep this website running!
PayPal
Bitcoin
This page is community maintained. The information is intended for PC simulator navigation or reference.
Always use approved charts for navigation.
SBMQ
MACAPA
MACAPA (SBMQ)
Macapá, Amapá, Brazil (68908)
(C)
Lat/Lng:0° 3' 2.3" N / 51° 4' 19.79" W
0.050639 / -51.072163
Elevation:56'ft / 17mMSL
ID / ICAO:SBMQ
Runways:1
Longest:08-26
Asphalt 2,108m / 6,917ft
Controlled:Yes
METAR18:00 GMT 2018-01-18
Altimeter: 29.83
Visibility: 6.2 statute miles
Wind: 10 knots (from 060°)
Temp: 33°c / 91°f
Humidity: 59.3%

METAR: SBMQ 181800Z 06010KT 9999 BKN020 FEW025TCU 33/24 Q1010

(Powered by phpweather)
Airport Radio Frequencies
Tower: 118
Approach: 119
Nearby VORs <50NM
Nearby NDBs
Runway 08 / 26
Dimensions:2108.2 x 45.1m 6917' x 148'ft
Surface:Asphalt
Edge Lights:Low intensity
Runway 08 [A]Runway 26 [B]
Heading:057°TH 237°TH
Lat:
Lng:
0° 2' 43.83"N
51° 4' 48.47"W
0° 3' 20.77"N
51° 3' 51.1"W
TDZ:Yes, lighted
User Notes and Comments
0° 3' 2.3" N / 51° 4' 19.79" W
Distance To
Airport ID:
Nearby Airports
4 Curiau 11.8 NM
SJKI NNE 21°
4 Aero Z Ferrus 65.2 NM
SNXE N 357°
(C) Porto Grande 67.3 NM
SNPG SSW 199°
(C) Chaves 78.3 NM
SNXW ESE 102°
4 Fazenda Campo Verde 78.6 NM
SNKV NNE 29°
4 Silvestre 80.3 NM
SSTQ NW 315°
(U) Fazenda Parabufalos 89.4 NM
SJOR NE 41°
VFR Chart
Flight Planning at SkyVector.com